sensor_id;sensor_type;location;lat;lon;timestamp;pressure;altitude;pressure_sealevel;temperature;humidity
12799;BME280;19250;42.646;26.980;2023-05-02T00:01:24;99548.69;;;11.84;62.14
12799;BME280;19250;42.646;26.980;2023-05-02T00:03:53;99554.94;;;11.03;64.96
12799;BME280;19250;42.646;26.980;2023-05-02T00:06:20;99565.94;;;11.44;63.88
12799;BME280;19250;42.646;26.980;2023-05-02T00:08:49;99562.25;;;12.08;60.56
12799;BME280;19250;42.646;26.980;2023-05-02T00:11:16;99558.97;;;12.32;57.32
12799;BME280;19250;42.646;26.980;2023-05-02T00:13:43;99564.72;;;12.45;56.73
12799;BME280;19250;42.646;26.980;2023-05-02T00:16:10;99575.25;;;12.72;56.22
12799;BME280;19250;42.646;26.980;2023-05-02T00:18:38;99577.56;;;11.98;58.04
12799;BME280;19250;42.646;26.980;2023-05-02T00:21:06;99569.44;;;11.27;62.34
12799;BME280;19250;42.646;26.980;2023-05-02T00:23:34;99578.94;;;11.57;61.91
12799;BME280;19250;42.646;26.980;2023-05-02T00:26:01;99576.19;;;11.49;62.41
12799;BME280;19250;42.646;26.980;2023-05-02T00:28:28;99571.50;;;10.79;66.47
12799;BME280;19250;42.646;26.980;2023-05-02T00:30:55;99570.75;;;11.14;65.78
12799;BME280;19250;42.646;26.980;2023-05-02T00:33:24;99579.19;;;11.64;63.03
12799;BME280;19250;42.646;26.980;2023-05-02T00:35:51;99575.25;;;12.03;60.84
12799;BME280;19250;42.646;26.980;2023-05-02T00:38:20;99585.38;;;12.35;59.23
12799;BME280;19250;42.646;26.980;2023-05-02T00:40:49;99586.25;;;11.82;60.63
12799;BME280;19250;42.646;26.980;2023-05-02T00:43:18;99586.19;;;11.20;65.63
12799;BME280;19250;42.646;26.980;2023-05-02T00:45:47;99582.38;;;11.77;62.92
12799;BME280;19250;42.646;26.980;2023-05-02T00:48:14;99573.13;;;12.07;59.51
12799;BME280;19250;42.646;26.980;2023-05-02T00:50:45;99552.81;;;12.14;57.70
12799;BME280;19250;42.646;26.980;2023-05-02T00:53:12;99570.84;;;12.37;56.78
12799;BME280;19250;42.646;26.980;2023-05-02T00:55:41;99571.63;;;12.30;56.83
12799;BME280;19250;42.646;26.980;2023-05-02T00:58:10;99577.53;;;11.80;57.45
12799;BME280;19250;42.646;26.980;2023-05-02T01:00:48;99553.34;;;11.99;55.98
12799;BME280;19250;42.646;26.980;2023-05-02T01:03:27;99562.06;;;12.02;55.13
12799;BME280;19250;42.646;26.980;2023-05-02T01:06:05;99568.81;;;12.31;54.48
12799;BME280;19250;42.646;26.980;2023-05-02T01:08:41;99573.81;;;11.91;55.22
12799;BME280;19250;42.646;26.980;2023-05-02T01:11:14;99576.44;;;11.56;56.08
12799;BME280;19250;42.646;26.980;2023-05-02T01:13:42;99547.38;;;11.25;57.50
12799;BME280;19250;42.646;26.980;2023-05-02T01:16:12;99576.91;;;11.24;58.05
12799;BME280;19250;42.646;26.980;2023-05-02T01:18:41;99575.19;;;10.96;58.55
12799;BME280;19250;42.646;26.980;2023-05-02T01:21:11;99581.28;;;11.42;57.76
12799;BME280;19250;42.646;26.980;2023-05-02T01:23:45;99575.75;;;11.26;58.58
12799;BME280;19250;42.646;26.980;2023-05-02T01:26:29;99575.09;;;10.87;61.05
12799;BME280;19250;42.646;26.980;2023-05-02T01:29:01;99578.13;;;11.02;59.23
12799;BME280;19250;42.646;26.980;2023-05-02T01:31:32;99576.94;;;11.59;58.62
12799;BME280;19250;42.646;26.980;2023-05-02T01:34:01;99576.25;;;11.84;57.07
12799;BME280;19250;42.646;26.980;2023-05-02T01:36:30;99573.50;;;11.76;57.07
12799;BME280;19250;42.646;26.980;2023-05-02T01:38:59;99558.81;;;11.80;56.85
12799;BME280;19250;42.646;26.980;2023-05-02T01:41:30;99569.38;;;11.99;55.83
12799;BME280;19250;42.646;26.980;2023-05-02T01:44:00;99573.28;;;11.60;55.85
12799;BME280;19250;42.646;26.980;2023-05-02T01:46:31;99539.66;;;11.50;55.80
12799;BME280;19250;42.646;26.980;2023-05-02T01:49:02;99563.19;;;11.81;55.70
12799;BME280;19250;42.646;26.980;2023-05-02T01:51:31;99565.56;;;11.84;56.04
12799;BME280;19250;42.646;26.980;2023-05-02T01:54:02;99566.94;;;11.88;56.55
12799;BME280;19250;42.646;26.980;2023-05-02T01:56:32;99562.78;;;12.12;56.01
12799;BME280;19250;42.646;26.980;2023-05-02T01:59:04;99563.78;;;11.75;56.93
12799;BME280;19250;42.646;26.980;2023-05-02T02:01:34;99561.91;;;11.85;56.76
12799;BME280;19250;42.646;26.980;2023-05-02T02:04:03;99558.00;;;11.80;56.07
12799;BME280;19250;42.646;26.980;2023-05-02T02:06:32;99565.81;;;11.64;57.79
12799;BME280;19250;42.646;26.980;2023-05-02T02:09:00;99564.00;;;11.46;58.93
12799;BME280;19250;42.646;26.980;2023-05-02T02:11:34;99550.94;;;11.61;58.37
12799;BME280;19250;42.646;26.980;2023-05-02T02:14:06;99571.66;;;11.94;57.19
12799;BME280;19250;42.646;26.980;2023-05-02T02:16:37;99568.06;;;12.04;56.57
12799;BME280;19250;42.646;26.980;2023-05-02T02:19:09;99569.44;;;11.90;57.06
12799;BME280;19250;42.646;26.980;2023-05-02T02:21:39;99566.78;;;11.72;57.36
12799;BME280;19250;42.646;26.980;2023-05-02T02:24:09;99559.97;;;11.78;57.01
12799;BME280;19250;42.646;26.980;2023-05-02T02:26:37;99574.25;;;11.86;56.70
12799;BME280;19250;42.646;26.980;2023-05-02T02:29:06;99566.09;;;11.88;56.74
12799;BME280;19250;42.646;26.980;2023-05-02T02:31:34;99570.50;;;11.62;58.12
12799;BME280;19250;42.646;26.980;2023-05-02T02:34:04;99560.47;;;11.46;58.50
12799;BME280;19250;42.646;26.980;2023-05-02T02:36:35;99578.03;;;11.66;58.58
12799;BME280;19250;42.646;26.980;2023-05-02T02:39:14;99572.38;;;11.69;58.21
12799;BME280;19250;42.646;26.980;2023-05-02T02:41:50;99572.91;;;11.37;59.65
12799;BME280;19250;42.646;26.980;2023-05-02T02:44:27;99568.22;;;11.22;60.17
12799;BME280;19250;42.646;26.980;2023-05-02T02:47:04;99574.34;;;11.22;60.72
12799;BME280;19250;42.646;26.980;2023-05-02T02:49:44;99579.75;;;11.40;59.71
12799;BME280;19250;42.646;26.980;2023-05-02T02:52:20;99583.09;;;11.24;60.65
12799;BME280;19250;42.646;26.980;2023-05-02T02:54:54;99579.41;;;11.25;60.81
12799;BME280;19250;42.646;26.980;2023-05-02T02:57:29;99581.47;;;11.31;60.39
12799;BME280;19250;42.646;26.980;2023-05-02T03:00:07;99545.47;;;10.90;61.49
12799;BME280;19250;42.646;26.980;2023-05-02T03:02:40;99582.06;;;11.25;60.70
12799;BME280;19250;42.646;26.980;2023-05-02T03:05:08;99594.59;;;11.25;60.86
12799;BME280;19250;42.646;26.980;2023-05-02T03:07:37;99596.81;;;11.29;60.40
12799;BME280;19250;42.646;26.980;2023-05-02T03:10:05;99593.78;;;11.42;59.68
12799;BME280;19250;42.646;26.980;2023-05-02T03:12:32;99600.91;;;11.24;59.92
12799;BME280;19250;42.646;26.980;2023-05-02T03:15:13;99601.16;;;11.03;60.66
12799;BME280;19250;42.646;26.980;2023-05-02T03:17:41;99604.19;;;11.18;60.82
12799;BME280;19250;42.646;26.980;2023-05-02T03:20:08;99603.75;;;10.85;62.92
12799;BME280;19250;42.646;26.980;2023-05-02T03:22:35;99564.31;;;10.79;61.63
12799;BME280;19250;42.646;26.980;2023-05-02T03:25:03;99607.28;;;10.76;62.56
12799;BME280;19250;42.646;26.980;2023-05-02T03:27:31;99614.25;;;10.21;65.55
12799;BME280;19250;42.646;26.980;2023-05-02T03:29:58;99606.63;;;10.55;65.16
12799;BME280;19250;42.646;26.980;2023-05-02T03:32:27;99615.16;;;10.68;64.76
12799;BME280;19250;42.646;26.980;2023-05-02T03:34:55;99616.50;;;10.26;67.30
12799;BME280;19250;42.646;26.980;2023-05-02T03:37:24;99615.47;;;10.56;67.33
12799;BME280;19250;42.646;26.980;2023-05-02T03:39:51;99619.06;;;10.83;65.97
12799;BME280;19250;42.646;26.980;2023-05-02T03:42:20;99626.53;;;10.70;66.66
12799;BME280;19250;42.646;26.980;2023-05-02T03:44:51;99632.13;;;10.77;67.23
12799;BME280;19250;42.646;26.980;2023-05-02T03:47:18;99630.97;;;10.79;67.29
12799;BME280;19250;42.646;26.980;2023-05-02T03:49:48;99633.78;;;10.87;67.45
12799;BME280;19250;42.646;26.980;2023-05-02T03:52:17;99641.13;;;10.85;68.46
12799;BME280;19250;42.646;26.980;2023-05-02T03:54:45;99634.00;;;10.67;71.07
12799;BME280;19250;42.646;26.980;2023-05-02T03:57:12;99637.59;;;10.85;71.18
12799;BME280;19250;42.646;26.980;2023-05-02T03:59:39;99648.16;;;11.14;69.71
12799;BME280;19250;42.646;26.980;2023-05-02T04:02:07;99639.88;;;11.07;70.93
12799;BME280;19250;42.646;26.980;2023-05-02T04:04:35;99645.06;;;11.18;69.88
12799;BME280;19250;42.646;26.980;2023-05-02T04:07:06;99652.00;;;11.38;68.46
12799;BME280;19250;42.646;26.980;2023-05-02T04:09:34;99658.28;;;11.74;66.26
12799;BME280;19250;42.646;26.980;2023-05-02T04:12:01;99644.81;;;11.93;64.52
12799;BME280;19250;42.646;26.980;2023-05-02T04:14:29;99650.25;;;12.02;63.53
12799;BME280;19250;42.646;26.980;2023-05-02T04:16:56;99654.53;;;11.67;61.08
12799;BME280;19250;42.646;26.980;2023-05-02T04:19:23;99647.84;;;11.54;61.49
12799;BME280;19250;42.646;26.980;2023-05-02T04:21:51;99655.50;;;11.66;61.28
12799;BME280;19250;42.646;26.980;2023-05-02T04:24:19;99653.25;;;11.71;60.11
12799;BME280;19250;42.646;26.980;2023-05-02T04:26:46;99656.66;;;11.64;61.37
12799;BME280;19250;42.646;26.980;2023-05-02T04:29:14;99657.06;;;11.59;60.60
12799;BME280;19250;42.646;26.980;2023-05-02T04:31:41;99663.91;;;12.34;58.01
12799;BME280;19250;42.646;26.980;2023-05-02T04:34:10;99654.53;;;12.73;56.75
12799;BME280;19250;42.646;26.980;2023-05-02T04:36:37;99657.63;;;12.61;55.69
12799;BME280;19250;42.646;26.980;2023-05-02T04:39:04;99661.59;;;12.74;55.50
12799;BME280;19250;42.646;26.980;2023-05-02T04:41:34;99658.25;;;13.24;54.07
12799;BME280;19250;42.646;26.980;2023-05-02T04:44:02;99665.19;;;13.08;52.70
12799;BME280;19250;42.646;26.980;2023-05-02T04:46:29;99664.19;;;13.09;53.13
12799;BME280;19250;42.646;26.980;2023-05-02T04:48:56;99663.63;;;13.24;52.65
12799;BME280;19250;42.646;26.980;2023-05-02T04:51:23;99669.75;;;13.50;52.91
12799;BME280;19250;42.646;26.980;2023-05-02T04:53:52;99661.41;;;13.19;53.16
12799;BME280;19250;42.646;26.980;2023-05-02T04:56:19;99662.34;;;12.67;53.81
12799;BME280;19250;42.646;26.980;2023-05-02T04:58:48;99664.41;;;12.73;55.82
12799;BME280;19250;42.646;26.980;2023-05-02T05:01:16;99661.81;;;13.32;54.64
12799;BME280;19250;42.646;26.980;2023-05-02T05:03:43;99666.19;;;13.75;53.45
12799;BME280;19250;42.646;26.980;2023-05-02T05:06:10;99669.06;;;13.82;51.93
12799;BME280;19250;42.646;26.980;2023-05-02T05:08:38;99669.59;;;14.01;52.27
12799;BME280;19250;42.646;26.980;2023-05-02T05:11:05;99666.34;;;14.48;49.82
12799;BME280;19250;42.646;26.980;2023-05-02T05:13:32;99670.72;;;14.57;46.51
12799;BME280;19250;42.646;26.980;2023-05-02T05:16:02;99671.38;;;14.59;47.73
12799;BME280;19250;42.646;26.980;2023-05-02T05:18:29;99675.22;;;14.40;47.05
12799;BME280;19250;42.646;26.980;2023-05-02T05:20:57;99673.72;;;14.38;48.31
12799;BME280;19250;42.646;26.980;2023-05-02T05:23:24;99671.88;;;14.38;47.66
12799;BME280;19250;42.646;26.980;2023-05-02T05:25:51;99681.59;;;14.47;46.96
12799;BME280;19250;42.646;26.980;2023-05-02T05:28:19;99678.94;;;14.63;46.84
12799;BME280;19250;42.646;26.980;2023-05-02T05:30:46;99680.38;;;14.17;46.50
12799;BME280;19250;42.646;26.980;2023-05-02T05:33:15;99684.09;;;15.13;45.51
12799;BME280;19250;42.646;26.980;2023-05-02T05:35:42;99682.78;;;14.61;44.69
12799;BME280;19250;42.646;26.980;2023-05-02T05:38:09;99685.41;;;14.12;46.61
12799;BME280;19250;42.646;26.980;2023-05-02T05:40:36;99682.78;;;14.45;47.08
12799;BME280;19250;42.646;26.980;2023-05-02T05:43:04;99685.34;;;15.42;45.43
12799;BME280;19250;42.646;26.980;2023-05-02T05:45:31;99689.13;;;15.16;45.65
12799;BME280;19250;42.646;26.980;2023-05-02T05:47:58;99683.88;;;15.31;45.63
12799;BME280;19250;42.646;26.980;2023-05-02T05:50:27;99685.16;;;16.29;43.19
12799;BME280;19250;42.646;26.980;2023-05-02T05:52:54;99685.97;;;16.52;42.65
12799;BME280;19250;42.646;26.980;2023-05-02T05:55:22;99691.28;;;17.06;43.43
12799;BME280;19250;42.646;26.980;2023-05-02T05:57:49;99695.06;;;16.97;43.24
12799;BME280;19250;42.646;26.980;2023-05-02T06:00:17;99705.97;;;16.04;43.23
12799;BME280;19250;42.646;26.980;2023-05-02T06:02:44;99695.50;;;16.85;42.94
12799;BME280;19250;42.646;26.980;2023-05-02T06:05:12;99696.59;;;17.43;40.85
12799;BME280;19250;42.646;26.980;2023-05-02T06:07:40;99695.16;;;17.03;41.03
12799;BME280;19250;42.646;26.980;2023-05-02T06:10:08;99693.84;;;17.36;40.89
12799;BME280;19250;42.646;26.980;2023-05-02T06:12:36;99695.13;;;17.40;40.74
12799;BME280;19250;42.646;26.980;2023-05-02T06:15:04;99697.81;;;17.99;39.20
12799;BME280;19250;42.646;26.980;2023-05-02T06:17:31;99695.19;;;18.41;38.03
12799;BME280;19250;42.646;26.980;2023-05-02T06:19:59;99696.00;;;18.57;38.09
12799;BME280;19250;42.646;26.980;2023-05-02T06:22:26;99697.41;;;18.95;37.26
12799;BME280;19250;42.646;26.980;2023-05-02T06:24:55;99697.41;;;18.17;38.16
12799;BME280;19250;42.646;26.980;2023-05-02T06:27:22;99697.75;;;19.13;36.95
12799;BME280;19250;42.646;26.980;2023-05-02T06:29:50;99705.59;;;19.36;36.33
12799;BME280;19250;42.646;26.980;2023-05-02T06:32:17;99699.72;;;19.53;36.13
12799;BME280;19250;42.646;26.980;2023-05-02T06:34:44;99700.44;;;20.16;35.18
12799;BME280;19250;42.646;26.980;2023-05-02T06:37:12;99687.59;;;20.31;34.76
12799;BME280;19250;42.646;26.980;2023-05-02T06:39:39;99693.91;;;20.45;35.33
12799;BME280;19250;42.646;26.980;2023-05-02T06:42:08;99694.06;;;20.37;34.97
12799;BME280;19250;42.646;26.980;2023-05-02T06:44:35;99698.09;;;19.59;36.26
12799;BME280;19250;42.646;26.980;2023-05-02T06:47:03;99689.41;;;20.18;35.44
12799;BME280;19250;42.646;26.980;2023-05-02T06:49:31;99693.94;;;20.78;34.75
12799;BME280;19250;42.646;26.980;2023-05-02T06:51:58;99701.97;;;20.32;35.12
12799;BME280;19250;42.646;26.980;2023-05-02T06:54:25;99694.59;;;21.06;34.71
12799;BME280;19250;42.646;26.980;2023-05-02T06:56:53;99695.44;;;21.06;34.67
12799;BME280;19250;42.646;26.980;2023-05-02T06:59:21;99699.16;;;21.38;33.82
12799;BME280;19250;42.646;26.980;2023-05-02T07:01:49;99697.88;;;21.60;33.22
12799;BME280;19250;42.646;26.980;2023-05-02T07:04:16;99701.25;;;21.49;32.88
12799;BME280;19250;42.646;26.980;2023-05-02T07:06:43;99701.81;;;22.35;33.60
12799;BME280;19250;42.646;26.980;2023-05-02T07:09:11;99701.50;;;21.28;34.92
12799;BME280;19250;42.646;26.980;2023-05-02T07:11:38;99698.88;;;21.73;35.03
12799;BME280;19250;42.646;26.980;2023-05-02T07:14:06;99697.69;;;22.26;33.86
12799;BME280;19250;42.646;26.980;2023-05-02T07:16:35;99702.56;;;22.49;33.48
12799;BME280;19250;42.646;26.980;2023-05-02T07:19:02;99699.06;;;21.97;33.98
12799;BME280;19250;42.646;26.980;2023-05-02T07:21:31;99708.91;;;22.30;33.75
12799;BME280;19250;42.646;26.980;2023-05-02T07:23:58;99703.28;;;21.80;34.55
12799;BME280;19250;42.646;26.980;2023-05-02T07:26:25;99701.06;;;22.15;34.04
12799;BME280;19250;42.646;26.980;2023-05-02T07:28:53;99711.97;;;22.02;31.42
12799;BME280;19250;42.646;26.980;2023-05-02T07:31:21;99709.00;;;22.16;29.49
12799;BME280;19250;42.646;26.980;2023-05-02T07:33:49;99717.78;;;22.12;29.81
12799;BME280;19250;42.646;26.980;2023-05-02T07:36:17;99722.19;;;22.51;28.89
12799;BME280;19250;42.646;26.980;2023-05-02T07:38:44;99712.47;;;22.30;28.86
12799;BME280;19250;42.646;26.980;2023-05-02T07:41:12;99717.44;;;22.40;28.67
12799;BME280;19250;42.646;26.980;2023-05-02T07:43:40;99725.75;;;22.51;29.08
12799;BME280;19250;42.646;26.980;2023-05-02T07:46:07;99717.13;;;22.23;29.02
12799;BME280;19250;42.646;26.980;2023-05-02T07:48:35;99718.03;;;22.04;28.00
12799;BME280;19250;42.646;26.980;2023-05-02T07:51:08;99720.09;;;22.08;27.85
12799;BME280;19250;42.646;26.980;2023-05-02T07:53:35;99719.50;;;21.87;28.03
12799;BME280;19250;42.646;26.980;2023-05-02T07:56:03;99715.78;;;21.94;27.92
12799;BME280;19250;42.646;26.980;2023-05-02T07:58:30;99719.25;;;22.14;28.25
12799;BME280;19250;42.646;26.980;2023-05-02T08:00:58;99712.91;;;22.27;28.03
12799;BME280;19250;42.646;26.980;2023-05-02T08:03:25;99720.13;;;22.02;28.25
12799;BME280;19250;42.646;26.980;2023-05-02T08:05:52;99721.91;;;22.28;27.55
12799;BME280;19250;42.646;26.980;2023-05-02T08:08:21;99716.63;;;21.95;27.00
12799;BME280;19250;42.646;26.980;2023-05-02T08:10:49;99719.16;;;21.77;27.50
12799;BME280;19250;42.646;26.980;2023-05-02T08:13:16;99721.28;;;21.61;27.94
12799;BME280;19250;42.646;26.980;2023-05-02T08:15:44;99721.31;;;21.29;28.31
12799;BME280;19250;42.646;26.980;2023-05-02T08:18:11;99717.03;;;21.85;28.20
12799;BME280;19250;42.646;26.980;2023-05-02T08:20:38;99706.53;;;22.02;28.57
12799;BME280;19250;42.646;26.980;2023-05-02T08:23:05;99715.34;;;21.84;29.04
12799;BME280;19250;42.646;26.980;2023-05-02T08:25:34;99719.91;;;22.10;28.02
12799;BME280;19250;42.646;26.980;2023-05-02T08:28:01;99722.38;;;22.18;28.00
12799;BME280;19250;42.646;26.980;2023-05-02T08:30:29;99715.97;;;21.93;26.94
12799;BME280;19250;42.646;26.980;2023-05-02T08:32:56;99706.50;;;22.15;27.23
12799;BME280;19250;42.646;26.980;2023-05-02T08:35:23;99721.94;;;22.14;26.20
12799;BME280;19250;42.646;26.980;2023-05-02T08:37:50;99726.88;;;21.80;27.26
12799;BME280;19250;42.646;26.980;2023-05-02T08:40:19;99699.69;;;21.86;27.42
12799;BME280;19250;42.646;26.980;2023-05-02T08:42:50;99710.88;;;22.22;27.65
12799;BME280;19250;42.646;26.980;2023-05-02T08:45:18;99712.41;;;21.99;27.91
12799;BME280;19250;42.646;26.980;2023-05-02T08:47:46;99709.66;;;22.50;27.46
12799;BME280;19250;42.646;26.980;2023-05-02T08:50:15;99711.19;;;21.82;27.07
12799;BME280;19250;42.646;26.980;2023-05-02T08:52:45;99717.84;;;21.99;27.02
12799;BME280;19250;42.646;26.980;2023-05-02T08:55:13;99715.97;;;21.93;27.40
12799;BME280;19250;42.646;26.980;2023-05-02T08:57:42;99715.78;;;22.39;26.89
12799;BME280;19250;42.646;26.980;2023-05-02T09:00:12;99718.94;;;23.05;26.45
12799;BME280;19250;42.646;26.980;2023-05-02T09:02:50;99691.81;;;22.67;27.22
12799;BME280;19250;42.646;26.980;2023-05-02T09:05:23;99714.69;;;22.46;26.18
12799;BME280;19250;42.646;26.980;2023-05-02T09:07:51;99712.16;;;22.51;25.62
12799;BME280;19250;42.646;26.980;2023-05-02T09:10:18;99706.66;;;22.96;26.37
12799;BME280;19250;42.646;26.980;2023-05-02T09:12:47;99701.16;;;22.77;26.64
12799;BME280;19250;42.646;26.980;2023-05-02T09:15:16;99703.13;;;22.26;27.47
12799;BME280;19250;42.646;26.980;2023-05-02T09:17:45;99709.38;;;22.20;26.69
12799;BME280;19250;42.646;26.980;2023-05-02T09:20:13;99711.72;;;22.16;26.62
12799;BME280;19250;42.646;26.980;2023-05-02T09:22:47;99714.22;;;22.56;26.29
12799;BME280;19250;42.646;26.980;2023-05-02T09:25:15;99701.22;;;22.96;24.91
12799;BME280;19250;42.646;26.980;2023-05-02T09:27:49;99698.31;;;22.91;25.34
12799;BME280;19250;42.646;26.980;2023-05-02T09:30:21;99705.78;;;23.02;26.52
12799;BME280;19250;42.646;26.980;2023-05-02T09:32:49;99711.78;;;23.78;23.57
12799;BME280;19250;42.646;26.980;2023-05-02T09:35:17;99703.41;;;23.55;24.81
12799;BME280;19250;42.646;26.980;2023-05-02T09:37:50;99708.31;;;23.46;25.00
12799;BME280;19250;42.646;26.980;2023-05-02T09:40:18;99710.16;;;23.89;24.41
12799;BME280;19250;42.646;26.980;2023-05-02T09:42:46;99689.66;;;23.50;25.25
12799;BME280;19250;42.646;26.980;2023-05-02T09:45:22;99708.59;;;22.89;25.85
12799;BME280;19250;42.646;26.980;2023-05-02T09:47:50;99703.78;;;23.40;25.10
12799;BME280;19250;42.646;26.980;2023-05-02T09:50:31;99690.25;;;24.43;24.51
12799;BME280;19250;42.646;26.980;2023-05-02T09:53:06;99704.09;;;23.25;25.14
12799;BME280;19250;42.646;26.980;2023-05-02T09:55:34;99678.25;;;22.54;26.19
12799;BME280;19250;42.646;26.980;2023-05-02T09:58:01;99701.69;;;23.42;25.63
12799;BME280;19250;42.646;26.980;2023-05-02T10:00:41;99693.06;;;24.77;24.61
12799;BME280;19250;42.646;26.980;2023-05-02T10:03:09;99694.00;;;24.12;24.36
12799;BME280;19250;42.646;26.980;2023-05-02T10:05:37;99682.94;;;23.70;25.02
12799;BME280;19250;42.646;26.980;2023-05-02T10:08:06;99698.75;;;23.12;25.22
12799;BME280;19250;42.646;26.980;2023-05-02T10:10:36;99695.16;;;22.94;25.65
12799;BME280;19250;42.646;26.980;2023-05-02T10:13:04;99697.56;;;23.33;25.06
12799;BME280;19250;42.646;26.980;2023-05-02T10:15:32;99658.59;;;23.14;25.23
12799;BME280;19250;42.646;26.980;2023-05-02T10:18:06;99692.91;;;23.40;26.31
12799;BME280;19250;42.646;26.980;2023-05-02T10:20:36;99684.72;;;23.40;25.82
12799;BME280;19250;42.646;26.980;2023-05-02T10:23:09;99679.16;;;22.79;25.28
12799;BME280;19250;42.646;26.980;2023-05-02T10:25:37;99688.94;;;22.87;25.61
12799;BME280;19250;42.646;26.980;2023-05-02T10:28:05;99662.34;;;24.11;24.71
12799;BME280;19250;42.646;26.980;2023-05-02T10:30:34;99669.84;;;23.97;25.10
12799;BME280;19250;42.646;26.980;2023-05-02T10:33:03;99676.41;;;22.86;25.64
12799;BME280;19250;42.646;26.980;2023-05-02T10:35:31;99664.75;;;24.37;24.88
12799;BME280;19250;42.646;26.980;2023-05-02T10:37:59;99676.97;;;23.37;24.78
12799;BME280;19250;42.646;26.980;2023-05-02T10:40:27;99672.25;;;23.08;25.38
12799;BME280;19250;42.646;26.980;2023-05-02T10:42:56;99681.75;;;22.99;26.24
12799;BME280;19250;42.646;26.980;2023-05-02T10:45:32;99668.38;;;23.40;25.71
12799;BME280;19250;42.646;26.980;2023-05-02T10:48:19;99674.69;;;23.59;25.45
12799;BME280;19250;42.646;26.980;2023-05-02T10:50:48;99672.34;;;23.99;25.71
12799;BME280;19250;42.646;26.980;2023-05-02T10:53:23;99673.41;;;23.61;25.74
12799;BME280;19250;42.646;26.980;2023-05-02T10:56:15;99665.59;;;24.19;25.18
12799;BME280;19250;42.646;26.980;2023-05-02T10:58:43;99672.28;;;24.35;25.00
12799;BME280;19250;42.646;26.980;2023-05-02T11:01:35;99669.78;;;24.63;24.53
12799;BME280;19250;42.646;26.980;2023-05-02T11:04:11;99666.56;;;25.77;22.55
12799;BME280;19250;42.646;26.980;2023-05-02T11:07:17;99648.88;;;24.87;24.07
12799;BME280;19250;42.646;26.980;2023-05-02T11:09:45;99654.94;;;25.24;23.52
12799;BME280;19250;42.646;26.980;2023-05-02T11:12:44;99661.50;;;25.58;23.50
12799;BME280;19250;42.646;26.980;2023-05-02T11:15:12;99667.66;;;24.77;23.84
12799;BME280;19250;42.646;26.980;2023-05-02T11:17:59;99687.09;;;24.57;24.56
12799;BME280;19250;42.646;26.980;2023-05-02T11:20:28;99659.09;;;24.62;24.15
12799;BME280;19250;42.646;26.980;2023-05-02T11:22:58;99641.38;;;24.41;24.81
12799;BME280;19250;42.646;26.980;2023-05-02T11:25:45;99647.81;;;25.00;24.67
12799;BME280;19250;42.646;26.980;2023-05-02T11:28:38;99658.75;;;25.46;23.98
12799;BME280;19250;42.646;26.980;2023-05-02T11:31:06;99663.00;;;25.42;23.75
12799;BME280;19250;42.646;26.980;2023-05-02T11:33:34;99656.63;;;24.72;24.14
12799;BME280;19250;42.646;26.980;2023-05-02T11:36:03;99646.03;;;25.63;23.50
12799;BME280;19250;42.646;26.980;2023-05-02T11:38:37;99646.88;;;26.04;22.88
12799;BME280;19250;42.646;26.980;2023-05-02T11:41:05;99642.56;;;25.79;23.68
12799;BME280;19250;42.646;26.980;2023-05-02T11:43:32;99655.19;;;25.57;23.52
12799;BME280;19250;42.646;26.980;2023-05-02T11:46:00;99635.59;;;25.60;23.50
12799;BME280;19250;42.646;26.980;2023-05-02T11:48:30;99643.56;;;25.27;24.22
12799;BME280;19250;42.646;26.980;2023-05-02T11:50:58;99638.06;;;25.73;23.59
12799;BME280;19250;42.646;26.980;2023-05-02T11:53:31;99644.66;;;24.61;24.27
12799;BME280;19250;42.646;26.980;2023-05-02T11:56:00;99647.44;;;24.84;23.67
12799;BME280;19250;42.646;26.980;2023-05-02T11:58:28;99652.59;;;25.16;23.64
12799;BME280;19250;42.646;26.980;2023-05-02T12:00:57;99647.22;;;24.98;24.28
12799;BME280;19250;42.646;26.980;2023-05-02T12:03:29;99616.59;;;25.30;23.12
12799;BME280;19250;42.646;26.980;2023-05-02T12:06:07;99642.16;;;25.87;23.35
12799;BME280;19250;42.646;26.980;2023-05-02T12:08:38;99638.88;;;25.85;23.51
12799;BME280;19250;42.646;26.980;2023-05-02T12:11:06;99623.72;;;25.08;23.63
12799;BME280;19250;42.646;26.980;2023-05-02T12:13:33;99641.41;;;25.06;23.29
12799;BME280;19250;42.646;26.980;2023-05-02T12:16:01;99627.50;;;24.84;23.59
12799;BME280;19250;42.646;26.980;2023-05-02T12:18:29;99558.91;;;24.57;23.44
12799;BME280;19250;42.646;26.980;2023-05-02T12:20:56;99628.22;;;25.26;23.15
12799;BME280;19250;42.646;26.980;2023-05-02T12:23:24;99619.44;;;25.59;22.90
12799;BME280;19250;42.646;26.980;2023-05-02T12:25:54;99619.22;;;25.14;22.92
12799;BME280;19250;42.646;26.980;2023-05-02T12:28:21;99617.78;;;25.00;22.78
12799;BME280;19250;42.646;26.980;2023-05-02T12:30:50;99617.44;;;24.84;22.98
12799;BME280;19250;42.646;26.980;2023-05-02T12:33:17;99618.75;;;24.82;23.43
12799;BME280;19250;42.646;26.980;2023-05-02T12:35:45;99611.84;;;25.14;23.00
12799;BME280;19250;42.646;26.980;2023-05-02T12:38:14;99607.81;;;25.05;23.57
12799;BME280;19250;42.646;26.980;2023-05-02T12:40:47;99599.13;;;24.20;23.69
12799;BME280;19250;42.646;26.980;2023-05-02T12:43:16;99590.88;;;24.38;23.87
12799;BME280;19250;42.646;26.980;2023-05-02T12:45:44;99594.44;;;24.39;23.27
12799;BME280;19250;42.646;26.980;2023-05-02T12:48:23;99616.19;;;23.79;24.62
12799;BME280;19250;42.646;26.980;2023-05-02T12:50:51;99597.34;;;24.67;23.62
12799;BME280;19250;42.646;26.980;2023-05-02T12:53:36;99601.31;;;24.42;24.14
12799;BME280;19250;42.646;26.980;2023-05-02T12:56:06;99592.88;;;25.08;22.69
12799;BME280;19250;42.646;26.980;2023-05-02T12:58:46;99598.41;;;24.78;23.10
12799;BME280;19250;42.646;26.980;2023-05-02T13:01:14;99605.22;;;24.87;23.55
12799;BME280;19250;42.646;26.980;2023-05-02T13:03:42;99594.63;;;25.14;23.57